Time;durP1;ratioP1;P1;durP2;ratioP2;P2;SDS_P1;SDS_P2;PMS_P1;PMS_P2;Temp;Humidity;BMP_temperature;BMP_pressure;BME280_temperature;BME280_humidity;BME280_pressure;Samples;Min_cycle;Max_cycle;Signal;HPM_P1;HPM_P2
2024/03/22 00:00:59;;;;;;;67.20;11.00;;;;;;;;;;5087198;28;20441;-83
2024/03/22 00:03:25;;;;;;;64.63;9.90;;;;;;;;;;5098556;28;20889;-84
2024/03/22 00:05:52;;;;;;;62.90;9.90;;;;;;;;;;5088445;28;20456;-84
2024/03/22 00:08:20;;;;;;;66.80;10.67;;;;;;;;;;5096680;28;20618;-85
2024/03/22 00:10:47;;;;;;;65.10;10.10;;;;;;;;;;5092293;28;20458;-84
2024/03/22 00:13:13;;;;;;;64.27;10.37;;;;;;;;;;5092647;28;20858;-85
2024/03/22 00:15:42;;;;;;;64.27;9.90;;;;;;;;;;5091875;28;20821;-83
2024/03/22 00:18:08;;;;;;;65.37;10.77;;;;;;;;;;5100431;28;20479;-84
2024/03/22 00:20:35;;;;;;;64.57;9.70;;;;;;;;;;5100616;28;20436;-84
2024/03/22 00:23:02;;;;;;;67.50;11.27;;;;;;;;;;5086597;28;20472;-84
2024/03/22 00:25:32;;;;;;;65.40;10.50;;;;;;;;;;5096728;28;20522;-84
2024/03/22 00:27:58;;;;;;;64.47;10.30;;;;;;;;;;5088662;28;20505;-84
2024/03/22 00:30:25;;;;;;;63.90;11.00;;;;;;;;;;5089168;28;20924;-84
2024/03/22 00:32:51;;;;;;;65.70;10.20;;;;;;;;;;5092599;28;20497;-84
2024/03/22 00:35:18;;;;;;;64.90;10.87;;;;;;;;;;5084446;28;21030;-84
2024/03/22 00:37:45;;;;;;;65.33;9.80;;;;;;;;;;5097037;28;20436;-84
2024/03/22 00:40:12;;;;;;;65.50;10.13;;;;;;;;;;5088498;28;20447;-85
2024/03/22 00:42:40;;;;;;;67.30;10.47;;;;;;;;;;5090983;28;20487;-84
2024/03/22 00:45:07;;;;;;;67.83;10.20;;;;;;;;;;5086396;28;20460;-84
2024/03/22 00:47:34;;;;;;;71.77;10.27;;;;;;;;;;5100479;28;20443;-84
2024/03/22 00:50:02;;;;;;;65.90;10.90;;;;;;;;;;5101426;28;20428;-84
2024/03/22 00:52:28;;;;;;;62.90;9.40;;;;;;;;;;5085601;28;20492;-84
2024/03/22 00:54:55;;;;;;;67.20;9.93;;;;;;;;;;5088513;28;20436;-85
2024/03/22 00:57:22;;;;;;;65.70;10.00;;;;;;;;;;5089384;28;20459;-84
2024/03/22 00:59:50;;;;;;;66.03;11.37;;;;;;;;;;5098170;28;20447;-84
2024/03/22 01:02:16;;;;;;;65.37;9.90;;;;;;;;;;5092413;28;20479;-84
2024/03/22 01:04:44;;;;;;;69.17;9.73;;;;;;;;;;5082612;28;20462;-84
2024/03/22 01:07:10;;;;;;;69.33;10.60;;;;;;;;;;5093942;28;20493;-84
2024/03/22 01:09:37;;;;;;;64.20;10.63;;;;;;;;;;5088156;28;20552;-84
2024/03/22 01:12:03;;;;;;;66.13;10.43;;;;;;;;;;5089480;28;20438;-84
2024/03/22 01:14:31;;;;;;;64.50;10.27;;;;;;;;;;5094301;28;20435;-83
2024/03/22 01:16:58;;;;;;;66.27;9.93;;;;;;;;;;5086549;28;20502;-83
2024/03/22 01:19:26;;;;;;;65.50;10.30;;;;;;;;;;5088513;28;20511;-83
2024/03/22 01:21:52;;;;;;;64.07;10.00;;;;;;;;;;5078271;28;20529;-84
2024/03/22 01:24:19;;;;;;;67.00;11.00;;;;;;;;;;5086803;28;20476;-84
2024/03/22 01:26:45;;;;;;;64.60;10.20;;;;;;;;;;5099110;28;20471;-84
2024/03/22 01:29:13;;;;;;;64.60;9.80;;;;;;;;;;5090718;28;20437;-83
2024/03/22 01:31:39;;;;;;;65.33;10.60;;;;;;;;;;5089684;28;20458;-84
2024/03/22 01:34:07;;;;;;;70.87;10.10;;;;;;;;;;5088513;28;20440;-83
2024/03/22 01:36:34;;;;;;;69.00;10.40;;;;;;;;;;5088796;28;20808;-84
2024/03/22 01:39:01;;;;;;;65.13;10.20;;;;;;;;;;5093345;28;20954;-84
2024/03/22 01:41:27;;;;;;;65.27;10.03;;;;;;;;;;5092050;28;20491;-84
2024/03/22 01:43:54;;;;;;;64.27;9.60;;;;;;;;;;5089712;28;20482;-84
2024/03/22 01:46:20;;;;;;;66.60;11.07;;;;;;;;;;5096409;28;20467;-83
2024/03/22 01:48:48;;;;;;;64.77;10.37;;;;;;;;;;5089743;28;20823;-83
2024/03/22 01:51:16;;;;;;;64.47;10.47;;;;;;;;;;5096205;28;20464;-83
2024/03/22 01:53:43;;;;;;;63.67;9.93;;;;;;;;;;5090784;28;20448;-85
2024/03/22 01:56:09;;;;;;;66.77;10.43;;;;;;;;;;5095684;28;20463;-84
2024/03/22 01:58:36;;;;;;;64.67;10.50;;;;;;;;;;5091632;28;20493;-84
2024/03/22 02:01:03;;;;;;;65.57;10.87;;;;;;;;;;5089237;28;20455;-84
2024/03/22 02:03:30;;;;;;;63.90;10.13;;;;;;;;;;5098145;28;20471;-84
2024/03/22 02:05:56;;;;;;;66.70;10.20;;;;;;;;;;5094460;28;20458;-84
2024/03/22 02:08:25;;;;;;;66.50;10.20;;;;;;;;;;5085715;28;20523;-84
2024/03/22 02:10:52;;;;;;;63.90;10.80;;;;;;;;;;5089865;28;20444;-84
2024/03/22 02:13:19;;;;;;;63.37;10.10;;;;;;;;;;5097196;28;20470;-83
2024/03/22 02:15:46;;;;;;;66.17;9.30;;;;;;;;;;5101978;28;20474;-84
2024/03/22 02:18:13;;;;;;;66.33;10.47;;;;;;;;;;5086474;28;20545;-84
2024/03/22 02:20:39;;;;;;;64.17;9.43;;;;;;;;;;5098836;28;20796;-85
2024/03/22 02:23:06;;;;;;;65.60;10.50;;;;;;;;;;5092996;28;20849;-85
2024/03/22 02:25:34;;;;;;;65.07;10.60;;;;;;;;;;5098841;28;20523;-84
2024/03/22 02:28:01;;;;;;;64.70;10.23;;;;;;;;;;5091964;28;20440;-83
2024/03/22 02:30:27;;;;;;;64.40;9.87;;;;;;;;;;5082856;28;20447;-84
2024/03/22 02:32:55;;;;;;;64.13;9.73;;;;;;;;;;5091002;28;20466;-83
2024/03/22 02:35:21;;;;;;;63.00;9.40;;;;;;;;;;5091850;28;20481;-84
2024/03/22 02:37:48;;;;;;;62.93;9.20;;;;;;;;;;5088440;28;20441;-84
2024/03/22 02:40:14;;;;;;;65.20;9.90;;;;;;;;;;5094742;28;20450;-84
2024/03/22 02:42:43;;;;;;;63.97;9.03;;;;;;;;;;5090208;28;20486;-84
2024/03/22 02:45:09;;;;;;;64.30;9.90;;;;;;;;;;5104215;28;20455;-85
2024/03/22 02:47:37;;;;;;;64.50;8.87;;;;;;;;;;5103234;28;20440;-84
2024/03/22 02:50:03;;;;;;;63.40;10.10;;;;;;;;;;5097131;28;20456;-85
2024/03/22 02:52:30;;;;;;;64.23;9.10;;;;;;;;;;5095600;28;20465;-84
2024/03/22 02:54:57;;;;;;;69.00;10.60;;;;;;;;;;5098831;28;20439;-85
2024/03/22 02:57:24;;;;;;;65.67;9.93;;;;;;;;;;5098337;28;20447;-84
2024/03/22 02:59:51;;;;;;;62.97;9.33;;;;;;;;;;5098018;28;20537;-84
2024/03/22 03:02:19;;;;;;;63.10;9.87;;;;;;;;;;5097880;28;20432;-84
2024/03/22 03:04:45;;;;;;;66.90;9.67;;;;;;;;;;5097589;28;20465;-84
2024/03/22 03:07:12;;;;;;;65.37;11.17;;;;;;;;;;5092219;28;20456;-84
2024/03/22 03:09:38;;;;;;;65.47;9.77;;;;;;;;;;5101351;28;20449;-84
2024/03/22 03:12:06;;;;;;;66.40;10.17;;;;;;;;;;5089156;28;20825;-84
2024/03/22 03:14:32;;;;;;;65.70;10.67;;;;;;;;;;5089606;28;20439;-84
2024/03/22 03:17:01;;;;;;;65.47;10.10;;;;;;;;;;5085421;28;20835;-84
2024/03/22 03:19:27;;;;;;;64.03;9.53;;;;;;;;;;5093495;28;20446;-84
2024/03/22 03:21:54;;;;;;;64.57;10.50;;;;;;;;;;5089284;28;20434;-84
2024/03/22 03:24:20;;;;;;;66.13;10.63;;;;;;;;;;5089059;28;20490;-83
2024/03/22 03:26:48;;;;;;;67.30;10.60;;;;;;;;;;5087125;28;20306;-84
2024/03/22 03:29:14;;;;;;;63.87;10.47;;;;;;;;;;5090832;28;20492;-84
2024/03/22 03:31:41;;;;;;;66.17;10.57;;;;;;;;;;5087052;28;20434;-84
2024/03/22 03:34:09;;;;;;;64.97;11.10;;;;;;;;;;5091458;28;20446;-84
2024/03/22 03:36:36;;;;;;;65.13;10.10;;;;;;;;;;5100308;28;20458;-84
2024/03/22 03:39:03;;;;;;;67.53;10.40;;;;;;;;;;5088832;28;20438;-83
2024/03/22 03:41:31;;;;;;;65.87;9.53;;;;;;;;;;5089251;28;20450;-84
2024/03/22 03:43:57;;;;;;;64.53;9.90;;;;;;;;;;5089177;28;20888;-84
2024/03/22 03:46:24;;;;;;;65.20;9.80;;;;;;;;;;5095915;28;20457;-84
2024/03/22 03:48:50;;;;;;;63.00;9.13;;;;;;;;;;5092239;28;20451;-84
2024/03/22 03:51:19;;;;;;;66.17;9.10;;;;;;;;;;5092611;28;20427;-84
2024/03/22 03:53:45;;;;;;;64.03;9.33;;;;;;;;;;5092164;28;20485;-84
2024/03/22 03:56:12;;;;;;;64.77;10.43;;;;;;;;;;5092164;28;20473;-83
2024/03/22 03:58:39;;;;;;;63.97;10.30;;;;;;;;;;5091235;28;20492;-83
2024/03/22 04:01:07;;;;;;;63.80;9.00;;;;;;;;;;5099899;28;20473;-83
2024/03/22 04:03:33;;;;;;;66.20;10.30;;;;;;;;;;5101987;28;20479;-82
2024/03/22 04:06:00;;;;;;;64.80;10.17;;;;;;;;;;5107924;28;20448;-82
2024/03/22 04:08:30;;;;;;;66.07;9.90;;;;;;;;;;5111189;28;20435;-83
2024/03/22 04:10:58;;;;;;;65.97;10.43;;;;;;;;;;5106739;28;20996;-83
2024/03/22 04:13:24;;;;;;;64.63;9.80;;;;;;;;;;5098214;28;20442;-84
2024/03/22 04:15:51;;;;;;;66.33;10.40;;;;;;;;;;5097666;28;20464;-84
2024/03/22 04:18:18;;;;;;;63.57;9.53;;;;;;;;;;5089725;28;20443;-84
2024/03/22 04:20:54;;;;;;;64.77;9.73;;;;;;;;;;5089543;28;20439;-83
2024/03/22 04:23:21;;;;;;;65.73;10.37;;;;;;;;;;5090659;28;20465;-83
2024/03/22 04:25:54;;;;;;;64.00;10.20;;;;;;;;;;5087403;28;20537;-83
2024/03/22 04:28:21;;;;;;;63.33;9.20;;;;;;;;;;5087707;28;20480;-83
2024/03/22 04:30:56;;;;;;;64.77;9.93;;;;;;;;;;5086745;28;20552;-83
2024/03/22 04:33:22;;;;;;;66.07;9.93;;;;;;;;;;5084209;28;20430;-83
2024/03/22 04:35:49;;;;;;;65.90;10.37;;;;;;;;;;5084749;28;20465;-83
2024/03/22 04:38:16;;;;;;;64.07;9.90;;;;;;;;;;5082982;28;20439;-84
2024/03/22 04:40:44;;;;;;;65.87;10.13;;;;;;;;;;5078654;28;20507;-83
2024/03/22 04:43:12;;;;;;;64.57;9.60;;;;;;;;;;5085244;28;20475;-84
2024/03/22 04:45:38;;;;;;;63.50;9.10;;;;;;;;;;5101466;28;20491;-84
2024/03/22 04:48:06;;;;;;;64.80;9.03;;;;;;;;;;5089243;28;20427;-84
2024/03/22 04:50:33;;;;;;;63.77;10.00;;;;;;;;;;5097837;28;20435;-84
2024/03/22 04:53:00;;;;;;;63.20;9.47;;;;;;;;;;5092202;28;20439;-84
2024/03/22 04:55:26;;;;;;;64.73;10.57;;;;;;;;;;5089680;28;20455;-85
2024/03/22 04:57:53;;;;;;;64.37;10.53;;;;;;;;;;5080403;28;20451;-84
2024/03/22 05:00:21;;;;;;;63.00;9.33;;;;;;;;;;5089410;28;20436;-84
2024/03/22 05:02:48;;;;;;;64.87;9.90;;;;;;;;;;5097390;28;20830;-84
2024/03/22 05:05:15;;;;;;;63.47;10.00;;;;;;;;;;5095838;28;20478;-83
2024/03/22 05:07:42;;;;;;;64.60;10.10;;;;;;;;;;5080100;28;20443;-84
2024/03/22 05:10:09;;;;;;;63.07;9.30;;;;;;;;;;5088750;28;20508;-83
2024/03/22 05:12:36;;;;;;;63.67;10.00;;;;;;;;;;5081027;28;20533;-84
2024/03/22 05:15:03;;;;;;;65.70;10.73;;;;;;;;;;5085631;28;20471;-84
2024/03/22 05:17:32;;;;;;;65.13;10.33;;;;;;;;;;5090076;28;20506;-84
2024/03/22 05:19:58;;;;;;;67.50;10.83;;;;;;;;;;5095321;28;20440;-84
2024/03/22 05:22:25;;;;;;;64.87;9.80;;;;;;;;;;5083462;28;20518;-84
2024/03/22 05:24:52;;;;;;;66.07;10.60;;;;;;;;;;5089030;28;20481;-83
2024/03/22 05:27:19;;;;;;;64.00;10.17;;;;;;;;;;5091709;28;20439;-84
2024/03/22 05:29:45;;;;;;;64.50;11.43;;;;;;;;;;5094512;28;20449;-83
2024/03/22 05:32:12;;;;;;;68.70;9.90;;;;;;;;;;5094034;28;20515;-84
2024/03/22 05:34:40;;;;;;;70.90;10.00;;;;;;;;;;5088756;28;20497;-83
2024/03/22 05:37:08;;;;;;;65.60;11.17;;;;;;;;;;5091744;28;20966;-83
2024/03/22 05:39:35;;;;;;;63.33;10.40;;;;;;;;;;5100412;28;20450;-83
2024/03/22 05:42:02;;;;;;;65.93;10.20;;;;;;;;;;5097510;28;20495;-85
2024/03/22 05:44:28;;;;;;;65.13;10.73;;;;;;;;;;5105555;28;20482;-83
2024/03/22 05:46:56;;;;;;;65.73;10.37;;;;;;;;;;5109432;28;20510;-84
2024/03/22 05:49:22;;;;;;;66.70;11.07;;;;;;;;;;5110626;28;20477;-84
2024/03/22 05:51:51;;;;;;;63.37;9.70;;;;;;;;;;5108161;28;20452;-84
2024/03/22 05:54:17;;;;;;;65.17;9.80;;;;;;;;;;5103669;28;20478;-84
2024/03/22 05:56:44;;;;;;;64.27;9.47;;;;;;;;;;5099013;28;20456;-83
2024/03/22 05:59:10;;;;;;;64.47;10.37;;;;;;;;;;5094959;28;20434;-83
2024/03/22 06:01:38;;;;;;;64.17;9.97;;;;;;;;;;5085636;28;20434;-83
2024/03/22 06:04:04;;;;;;;66.63;10.77;;;;;;;;;;5090236;28;20475;-83
2024/03/22 06:06:31;;;;;;;73.50;11.60;;;;;;;;;;5082679;28;20469;-82
2024/03/22 06:09:02;;;;;;;66.60;9.63;;;;;;;;;;5093980;28;20451;-83
2024/03/22 06:11:30;;;;;;;67.70;11.50;;;;;;;;;;5080489;28;20456;-83
2024/03/22 06:13:56;;;;;;;65.00;9.80;;;;;;;;;;5085252;28;20455;-83
2024/03/22 06:16:23;;;;;;;66.40;9.87;;;;;;;;;;5087119;28;20453;-82
2024/03/22 06:18:49;;;;;;;65.50;9.73;;;;;;;;;;5086142;28;20453;-83
2024/03/22 06:21:21;;;;;;;64.87;9.80;;;;;;;;;;5075439;28;20442;-83
2024/03/22 06:23:48;;;;;;;66.00;9.63;;;;;;;;;;5085275;28;20496;-83
2024/03/22 06:26:16;;;;;;;66.50;9.93;;;;;;;;;;5087211;28;20474;-83
2024/03/22 06:28:43;;;;;;;63.67;9.70;;;;;;;;;;5087400;28;20598;-84
2024/03/22 06:31:10;;;;;;;67.10;10.97;;;;;;;;;;5095970;28;20446;-84
2024/03/22 06:33:37;;;;;;;65.83;9.67;;;;;;;;;;5088620;28;20440;-84
2024/03/22 06:36:03;;;;;;;65.97;9.73;;;;;;;;;;5093276;28;20505;-83
2024/03/22 06:38:31;;;;;;;64.73;10.77;;;;;;;;;;5091176;28;20433;-83
2024/03/22 06:40:58;;;;;;;66.03;11.00;;;;;;;;;;5085565;28;20443;-82
2024/03/22 06:43:27;;;;;;;69.17;10.13;;;;;;;;;;5094093;28;20494;-84
2024/03/22 06:45:53;;;;;;;65.00;10.20;;;;;;;;;;5088987;28;20496;-84
2024/03/22 06:48:21;;;;;;;66.00;11.47;;;;;;;;;;5088694;28;20498;-84
2024/03/22 06:50:47;;;;;;;65.90;10.40;;;;;;;;;;5096349;28;20504;-84
2024/03/22 06:53:14;;;;;;;65.57;10.90;;;;;;;;;;5087396;28;20436;-84
2024/03/22 06:55:40;;;;;;;66.93;10.53;;;;;;;;;;5095404;28;20658;-84
2024/03/22 06:58:07;;;;;;;70.00;12.07;;;;;;;;;;5078268;28;20454;-84
2024/03/22 07:00:35;;;;;;;65.77;10.33;;;;;;;;;;5093743;28;20495;-84
2024/03/22 07:03:03;;;;;;;66.60;10.63;;;;;;;;;;5087276;28;20488;-85
2024/03/22 07:05:30;;;;;;;65.13;10.73;;;;;;;;;;5085904;28;21022;-84
2024/03/22 07:07:57;;;;;;;66.73;10.80;;;;;;;;;;5094336;28;20921;-84
2024/03/22 07:10:27;;;;;;;67.00;11.50;;;;;;;;;;5095572;28;20443;-84
2024/03/22 07:12:54;;;;;;;66.07;10.00;;;;;;;;;;5093537;28;20457;-83
2024/03/22 07:15:21;;;;;;;66.70;10.63;;;;;;;;;;5095647;28;20494;-82
2024/03/22 07:17:50;;;;;;;65.67;11.03;;;;;;;;;;5089060;28;20454;-82
2024/03/22 07:20:16;;;;;;;64.83;10.90;;;;;;;;;;5100415;28;20867;-83
2024/03/22 07:22:43;;;;;;;65.57;11.40;;;;;;;;;;5091780;28;20515;-84
2024/03/22 07:25:10;;;;;;;69.07;11.30;;;;;;;;;;5088558;28;20501;-83
2024/03/22 07:27:37;;;;;;;65.87;10.60;;;;;;;;;;5087939;28;20440;-83
2024/03/22 07:30:04;;;;;;;65.87;11.17;;;;;;;;;;5096436;28;20442;-83
2024/03/22 07:32:32;;;;;;;65.80;10.77;;;;;;;;;;5089222;28;20515;-84
2024/03/22 07:34:59;;;;;;;64.90;10.80;;;;;;;;;;5095241;28;20858;-84
2024/03/22 07:37:27;;;;;;;66.73;11.57;;;;;;;;;;5099863;28;20462;-84
2024/03/22 07:39:53;;;;;;;67.03;10.63;;;;;;;;;;5095564;28;20447;-84
2024/03/22 07:42:21;;;;;;;65.10;11.27;;;;;;;;;;5098895;28;20423;-83
2024/03/22 07:44:47;;;;;;;67.03;11.40;;;;;;;;;;5095136;28;20841;-83
2024/03/22 07:47:14;;;;;;;67.07;12.47;;;;;;;;;;5104521;28;20888;-83
2024/03/22 07:49:41;;;;;;;66.90;11.33;;;;;;;;;;5088153;28;20462;-83
2024/03/22 07:52:09;;;;;;;68.57;11.67;;;;;;;;;;5100129;28;20454;-83
2024/03/22 07:54:36;;;;;;;64.50;10.70;;;;;;;;;;5093109;28;20461;-84
2024/03/22 07:57:03;;;;;;;66.77;12.20;;;;;;;;;;5101562;28;20516;-84
2024/03/22 07:59:30;;;;;;;66.80;12.20;;;;;;;;;;5091548;28;20496;-84
2024/03/22 08:01:57;;;;;;;67.80;12.70;;;;;;;;;;5082769;28;20485;-84
2024/03/22 08:04:24;;;;;;;68.83;12.00;;;;;;;;;;5091490;28;20471;-84
2024/03/22 08:06:52;;;;;;;69.00;11.33;;;;;;;;;;5091312;28;20462;-84
2024/03/22 08:09:20;;;;;;;66.50;11.40;;;;;;;;;;5095001;28;20447;-84
2024/03/22 08:11:47;;;;;;;65.30;10.80;;;;;;;;;;5096950;28;20443;-85
2024/03/22 08:14:16;;;;;;;65.83;10.67;;;;;;;;;;5088792;28;20443;-84
2024/03/22 08:16:44;;;;;;;68.17;11.30;;;;;;;;;;5088795;28;20456;-84
2024/03/22 08:19:10;;;;;;;64.10;9.73;;;;;;;;;;5088061;28;20501;-84
2024/03/22 08:21:37;;;;;;;65.93;11.10;;;;;;;;;;5095508;28;20427;-83
2024/03/22 08:24:04;;;;;;;65.30;10.40;;;;;;;;;;5097658;28;20470;-84
2024/03/22 08:26:36;;;;;;;64.37;9.80;;;;;;;;;;5093618;28;20494;-83
2024/03/22 08:29:02;;;;;;;63.20;9.20;;;;;;;;;;5111238;28;20427;-85
2024/03/22 08:31:30;;;;;;;63.53;9.00;;;;;;;;;;5116920;28;20416;-85
2024/03/22 08:33:56;;;;;;;64.07;9.80;;;;;;;;;;5108267;28;20424;-84
2024/03/22 08:36:24;;;;;;;62.17;9.27;;;;;;;;;;5104357;28;20458;-86
2024/03/22 08:38:50;;;;;;;65.50;10.13;;;;;;;;;;5099240;28;20439;-86
2024/03/22 08:41:17;;;;;;;62.50;9.10;;;;;;;;;;5108871;28;20427;-86
2024/03/22 08:43:46;;;;;;;64.07;9.77;;;;;;;;;;5099613;28;20493;-84
2024/03/22 08:46:13;;;;;;;64.20;10.20;;;;;;;;;;5095375;28;20479;-85
2024/03/22 08:48:39;;;;;;;64.17;10.40;;;;;;;;;;5084499;28;20444;-86
2024/03/22 08:51:06;;;;;;;62.67;8.67;;;;;;;;;;5105562;28;20435;-84
2024/03/22 08:53:33;;;;;;;65.10;9.73;;;;;;;;;;5097886;28;20435;-85
2024/03/22 08:56:00;;;;;;;63.20;9.40;;;;;;;;;;5096055;28;20478;-85
2024/03/22 08:58:27;;;;;;;62.00;8.90;;;;;;;;;;5088826;28;20450;-84
2024/03/22 09:00:55;;;;;;;64.33;9.20;;;;;;;;;;5087584;28;20447;-83
2024/03/22 09:03:22;;;;;;;65.13;9.30;;;;;;;;;;5099216;28;20497;-84
2024/03/22 09:05:49;;;;;;;61.30;8.33;;;;;;;;;;5096196;28;21053;-84
2024/03/22 09:08:16;;;;;;;64.23;9.00;;;;;;;;;;5082165;28;20482;-84
2024/03/22 09:10:43;;;;;;;64.00;8.73;;;;;;;;;;5090202;28;20441;-85
2024/03/22 09:13:12;;;;;;;66.10;9.33;;;;;;;;;;5098710;28;20440;-84
2024/03/22 09:15:39;;;;;;;63.30;8.13;;;;;;;;;;5096664;28;20451;-83
2024/03/22 09:18:09;;;;;;;65.63;8.50;;;;;;;;;;5101863;28;20435;-84
2024/03/22 09:20:36;;;;;;;63.10;8.53;;;;;;;;;;5094055;28;20455;-85
2024/03/22 09:23:03;;;;;;;63.87;8.87;;;;;;;;;;5093755;28;20451;-85
2024/03/22 09:25:31;;;;;;;61.50;7.90;;;;;;;;;;5086012;28;20505;-85
2024/03/22 09:27:57;;;;;;;61.70;7.63;;;;;;;;;;5097939;28;20457;-85
2024/03/22 09:30:24;;;;;;;65.03;9.23;;;;;;;;;;5091930;28;20449;-86
2024/03/22 09:32:52;;;;;;;65.63;8.67;;;;;;;;;;5088971;28;20509;-86
2024/03/22 09:35:20;;;;;;;63.17;9.70;;;;;;;;;;5080808;28;20968;-86
2024/03/22 09:37:47;;;;;;;62.87;8.37;;;;;;;;;;5080882;28;20455;-87
2024/03/22 09:40:14;;;;;;;64.17;8.23;;;;;;;;;;5085010;28;20432;-86
2024/03/22 09:42:41;;;;;;;61.17;8.60;;;;;;;;;;5085080;28;20938;-86
2024/03/22 09:45:11;;;;;;;60.40;8.20;;;;;;;;;;5087983;28;20519;-86
2024/03/22 09:47:37;;;;;;;65.87;9.43;;;;;;;;;;5093106;28;20513;-86
2024/03/22 09:50:08;;;;;;;64.10;8.43;;;;;;;;;;5097173;28;20481;-86
2024/03/22 09:52:36;;;;;;;62.67;8.90;;;;;;;;;;5089718;28;20552;-86
2024/03/22 09:55:04;;;;;;;60.90;8.20;;;;;;;;;;5087052;28;20823;-87
2024/03/22 09:57:31;;;;;;;66.57;8.87;;;;;;;;;;5090139;28;20455;-85
2024/03/22 09:59:59;;;;;;;62.73;8.70;;;;;;;;;;5098794;28;20451;-86
2024/03/22 10:02:26;;;;;;;63.87;9.00;;;;;;;;;;5090948;28;20512;-86
2024/03/22 10:04:53;;;;;;;62.50;8.40;;;;;;;;;;5089956;28;20510;-86
2024/03/22 10:07:19;;;;;;;65.00;8.20;;;;;;;;;;5086551;28;20436;-84
2024/03/22 10:09:48;;;;;;;61.20;7.23;;;;;;;;;;5090688;28;20436;-83
2024/03/22 10:12:14;;;;;;;62.27;7.87;;;;;;;;;;5083976;28;20469;-84
2024/03/22 10:14:44;;;;;;;61.13;7.73;;;;;;;;;;5090519;28;20450;-83
2024/03/22 10:17:11;;;;;;;61.13;8.03;;;;;;;;;;5088712;28;20497;-84
2024/03/22 10:19:40;;;;;;;62.30;7.43;;;;;;;;;;5088187;28;20440;-84
2024/03/22 10:22:06;;;;;;;59.70;7.00;;;;;;;;;;5089437;28;20454;-85
2024/03/22 10:24:34;;;;;;;62.60;7.00;;;;;;;;;;5093590;28;20842;-85
2024/03/22 10:27:02;;;;;;;63.40;7.00;;;;;;;;;;5087704;28;20521;-85
2024/03/22 10:29:29;;;;;;;60.90;7.00;;;;;;;;;;5090469;28;20435;-85
2024/03/22 10:31:56;;;;;;;60.20;7.13;;;;;;;;;;5072080;28;20455;-84
2024/03/22 10:34:24;;;;;;;61.80;6.53;;;;;;;;;;5081687;28;20436;-84
2024/03/22 10:36:50;;;;;;;65.30;7.83;;;;;;;;;;5090048;28;20870;-85
2024/03/22 10:39:18;;;;;;;61.57;6.97;;;;;;;;;;5091647;28;20531;-84
2024/03/22 10:41:45;;;;;;;68.30;8.47;;;;;;;;;;5094931;28;20477;-85
2024/03/22 10:44:13;;;;;;;61.97;7.30;;;;;;;;;;5085189;28;20490;-85
2024/03/22 10:46:43;;;;;;;60.27;6.90;;;;;;;;;;5082153;28;20825;-84
2024/03/22 10:49:10;;;;;;;61.70;7.07;;;;;;;;;;5090422;28;20783;-84
2024/03/22 10:51:37;;;;;;;60.40;6.90;;;;;;;;;;5081995;28;20456;-85
2024/03/22 10:54:05;;;;;;;60.70;7.57;;;;;;;;;;5090239;28;20476;-84
2024/03/22 10:56:31;;;;;;;59.40;6.63;;;;;;;;;;5086434;28;20455;-86
2024/03/22 10:58:58;;;;;;;61.70;6.93;;;;;;;;;;5076708;28;20452;-84
2024/03/22 11:01:29;;;;;;;63.87;7.00;;;;;;;;;;5084976;28;20447;-84
2024/03/22 11:04:06;;;;;;;61.50;7.13;;;;;;;;;;5076930;28;20452;-84
2024/03/22 11:06:32;;;;;;;60.30;6.83;;;;;;;;;;5080318;28;20475;-84
2024/03/22 11:09:01;;;;;;;60.63;6.27;;;;;;;;;;5090233;28;20428;-84
2024/03/22 11:11:29;;;;;;;60.67;5.83;;;;;;;;;;5112340;28;20475;-85
2024/03/22 11:13:57;;;;;;;62.37;6.83;;;;;;;;;;5110834;28;20438;-85
2024/03/22 11:16:23;;;;;;;60.93;6.50;;;;;;;;;;5084847;28;20475;-85
2024/03/22 11:18:52;;;;;;;60.20;5.57;;;;;;;;;;5081441;28;20529;-85
2024/03/22 11:21:18;;;;;;;59.40;6.43;;;;;;;;;;5084222;28;20429;-85
2024/03/22 11:23:46;;;;;;;58.90;6.07;;;;;;;;;;5086089;28;20432;-84
2024/03/22 11:26:13;;;;;;;60.00;6.43;;;;;;;;;;5091630;28;20485;-85
2024/03/22 11:28:40;;;;;;;62.20;6.30;;;;;;;;;;5085395;28;20441;-84
2024/03/22 11:31:06;;;;;;;59.03;5.83;;;;;;;;;;5093114;28;20488;-86
2024/03/22 11:33:34;;;;;;;60.30;5.93;;;;;;;;;;5079556;28;20454;-85
2024/03/22 11:36:02;;;;;;;59.50;5.90;;;;;;;;;;5089637;28;20464;-85
2024/03/22 11:38:30;;;;;;;63.03;6.60;;;;;;;;;;5084828;28;20498;-86
2024/03/22 11:40:59;;;;;;;66.03;6.70;;;;;;;;;;5083719;28;20476;-85
2024/03/22 11:43:27;;;;;;;58.83;5.73;;;;;;;;;;5080785;28;20442;-84
2024/03/22 11:45:54;;;;;;;59.80;6.27;;;;;;;;;;5080639;28;20568;-84
2024/03/22 11:48:21;;;;;;;60.57;6.23;;;;;;;;;;5072241;28;20544;-84
2024/03/22 11:50:47;;;;;;;60.70;5.83;;;;;;;;;;5080775;28;20438;-84
2024/03/22 11:53:17;;;;;;;59.90;5.80;;;;;;;;;;5088955;28;20448;-83
2024/03/22 11:55:43;;;;;;;59.77;6.10;;;;;;;;;;5089229;28;20464;-85
2024/03/22 11:58:11;;;;;;;58.70;5.37;;;;;;;;;;5085609;28;20536;-84
2024/03/22 12:00:37;;;;;;;61.13;5.60;;;;;;;;;;5084171;28;21055;-85
2024/03/22 12:03:06;;;;;;;62.40;6.43;;;;;;;;;;5093589;28;20444;-84
2024/03/22 12:05:32;;;;;;;60.60;5.67;;;;;;;;;;5076203;28;20490;-85
2024/03/22 12:07:59;;;;;;;59.87;6.30;;;;;;;;;;5084429;28;20464;-86
2024/03/22 12:10:27;;;;;;;58.80;5.60;;;;;;;;;;5076777;28;20441;-85
2024/03/22 12:12:55;;;;;;;59.23;5.97;;;;;;;;;;5087345;28;20453;-85
2024/03/22 12:15:22;;;;;;;58.20;5.83;;;;;;;;;;5093429;28;20457;-86
2024/03/22 12:17:49;;;;;;;57.67;5.37;;;;;;;;;;5094245;28;20442;-86
2024/03/22 12:20:15;;;;;;;59.00;5.30;;;;;;;;;;5096160;28;20506;-87
2024/03/22 12:22:43;;;;;;;61.53;6.10;;;;;;;;;;5084264;28;20462;-85
2024/03/22 12:25:11;;;;;;;61.10;6.20;;;;;;;;;;5092216;28;20961;-85
2024/03/22 12:27:40;;;;;;;61.73;5.90;;;;;;;;;;5080667;28;20544;-85
2024/03/22 12:30:08;;;;;;;59.60;5.70;;;;;;;;;;5092642;28;20439;-85
2024/03/22 12:32:35;;;;;;;57.03;4.80;;;;;;;;;;5086697;28;20451;-86
2024/03/22 12:35:01;;;;;;;64.20;5.13;;;;;;;;;;5086970;28;20452;-86
2024/03/22 12:37:29;;;;;;;60.50;5.80;;;;;;;;;;5088263;28;20435;-87
2024/03/22 12:39:55;;;;;;;61.90;5.60;;;;;;;;;;5092115;28;20458;-85
2024/03/22 12:42:22;;;;;;;58.20;5.53;;;;;;;;;;5093567;28;20815;-86
2024/03/22 12:44:50;;;;;;;59.07;5.80;;;;;;;;;;5081150;28;20484;-86
2024/03/22 12:47:17;;;;;;;61.03;5.80;;;;;;;;;;5092953;28;20448;-85
2024/03/22 12:49:44;;;;;;;60.27;5.40;;;;;;;;;;5086578;28;20452;-85
2024/03/22 12:52:11;;;;;;;60.93;5.70;;;;;;;;;;5083076;28;20440;-85
2024/03/22 12:54:38;;;;;;;60.40;5.50;;;;;;;;;;5084924;28;20456;-86
2024/03/22 12:57:05;;;;;;;60.80;5.60;;;;;;;;;;5091969;28;20859;-87
2024/03/22 12:59:31;;;;;;;59.20;5.37;;;;;;;;;;5094280;28;20435;-86
2024/03/22 13:02:01;;;;;;;60.60;5.57;;;;;;;;;;5094411;28;20443;-86
2024/03/22 13:04:27;;;;;;;58.70;5.37;;;;;;;;;;5078254;28;20467;-87
2024/03/22 13:06:55;;;;;;;58.27;5.13;;;;;;;;;;5077710;28;20460;-86
2024/03/22 13:09:21;;;;;;;59.70;5.50;;;;;;;;;;5085015;28;21102;-86
2024/03/22 13:11:48;;;;;;;60.67;5.00;;;;;;;;;;5087951;28;20452;-86
2024/03/22 13:14:15;;;;;;;60.40;4.77;;;;;;;;;;5092700;28;20439;-86
2024/03/22 13:16:42;;;;;;;58.60;4.97;;;;;;;;;;5080490;28;20462;-86
2024/03/22 13:19:12;;;;;;;58.90;5.10;;;;;;;;;;5083161;28;20441;-86
2024/03/22 13:21:39;;;;;;;59.60;4.80;;;;;;;;;;5080832;28;20803;-86
2024/03/22 13:24:05;;;;;;;58.87;5.17;;;;;;;;;;5090904;28;20501;-86
2024/03/22 13:26:33;;;;;;;58.30;4.40;;;;;;;;;;5085901;28;20871;-85
2024/03/22 13:28:59;;;;;;;60.90;4.57;;;;;;;;;;5077867;28;21001;-86
2024/03/22 13:31:26;;;;;;;59.00;5.13;;;;;;;;;;5082103;28;20440;-86
2024/03/22 13:33:53;;;;;;;59.03;4.40;;;;;;;;;;5082279;28;20919;-85
2024/03/22 13:36:22;;;;;;;59.80;4.63;;;;;;;;;;5076689;28;21022;-87
2024/03/22 13:38:49;;;;;;;60.13;5.03;;;;;;;;;;5088612;28;20502;-86
2024/03/22 13:41:16;;;;;;;58.97;5.17;;;;;;;;;;5092573;28;20493;-85
2024/03/22 13:43:44;;;;;;;59.13;5.13;;;;;;;;;;5086165;28;20829;-86
2024/03/22 13:46:14;;;;;;;58.17;4.87;;;;;;;;;;5094879;28;20512;-89
2024/03/22 13:48:42;;;;;;;61.67;4.40;;;;;;;;;;5087033;28;20492;-86
2024/03/22 13:51:08;;;;;;;58.20;4.30;;;;;;;;;;5085355;28;20444;-87
2024/03/22 13:53:38;;;;;;;59.27;4.83;;;;;;;;;;5074680;28;20463;-86
2024/03/22 13:56:04;;;;;;;60.83;4.77;;;;;;;;;;5082698;28;20457;-87
2024/03/22 13:58:31;;;;;;;57.50;4.40;;;;;;;;;;5075250;28;20484;-86
2024/03/22 14:00:58;;;;;;;57.87;4.50;;;;;;;;;;5084593;28;20497;-87
2024/03/22 14:03:25;;;;;;;58.30;4.33;;;;;;;;;;5094222;28;20449;-86
2024/03/22 14:05:51;;;;;;;57.40;4.30;;;;;;;;;;5091635;28;20484;-86
2024/03/22 14:08:19;;;;;;;58.40;4.30;;;;;;;;;;5099403;28;20444;-86
2024/03/22 14:10:47;;;;;;;58.10;4.60;;;;;;;;;;5095830;28;20451;-87
2024/03/22 14:13:15;;;;;;;58.73;4.63;;;;;;;;;;5087103;28;20432;-89
2024/03/22 14:15:41;;;;;;;59.10;4.33;;;;;;;;;;5089392;28;20460;-90
2024/03/22 14:18:09;;;;;;;57.90;4.30;;;;;;;;;;5084638;28;20782;-88
2024/03/22 14:20:35;;;;;;;58.53;5.07;;;;;;;;;;5090631;28;21125;-90
2024/03/22 14:23:04;;;;;;;58.50;5.20;;;;;;;;;;5090652;28;20454;-87